createdAt,value
2023-04-21T00:03:41.970Z,14.70
2023-04-21T00:08:43.689Z,14.38
2023-04-21T00:13:45.319Z,14.98
2023-04-21T00:18:48.010Z,14.50
2023-04-21T00:23:50.133Z,14.63
2023-04-21T00:28:51.978Z,13.05
2023-04-21T00:33:54.134Z,15.45
2023-04-21T00:38:57.362Z,16.38
2023-04-21T00:44:09.457Z,17.48
2023-04-21T00:54:15.009Z,14.32
2023-04-21T00:59:18.187Z,10.50
2023-04-21T01:04:20.079Z,9.85
2023-04-21T01:09:22.064Z,12.82
2023-04-21T01:14:23.871Z,14.55
2023-04-21T01:19:28.633Z,14.02
2023-04-21T01:24:44.774Z,12.43
2023-04-21T01:29:49.806Z,15.20
2023-04-21T01:34:52.082Z,13.57
2023-04-21T01:39:55.618Z,15.30
2023-04-21T01:44:57.729Z,16.92
2023-04-21T01:49:59.602Z,15.00
2023-04-21T01:55:01.883Z,13.55
2023-04-21T02:00:04.960Z,15.35
2023-04-21T02:05:16.699Z,15.55
2023-04-21T02:10:18.647Z,14.40
2023-04-21T02:15:20.284Z,15.13
2023-04-21T02:20:21.967Z,14.98
2023-04-21T02:25:23.576Z,15.10
2023-04-21T02:30:25.188Z,14.48
2023-04-21T02:35:27.212Z,17.67
2023-04-21T02:40:29.012Z,15.45
2023-04-21T02:45:30.752Z,14.82
2023-04-21T02:50:32.388Z,15.70
2023-04-21T02:55:34.339Z,18.42
2023-04-21T03:00:37.786Z,14.38
2023-04-21T03:05:39.415Z,15.77
2023-04-21T03:10:41.605Z,13.10
2023-04-21T03:15:43.757Z,13.20
2023-04-21T03:20:45.456Z,13.55
2023-04-21T03:25:47.093Z,13.90
2023-04-21T03:30:48.708Z,14.98
2023-04-21T03:35:50.294Z,16.33
2023-04-21T03:40:51.880Z,15.45
2023-04-21T03:45:53.868Z,16.00
2023-04-21T03:50:55.741Z,13.65
2023-04-21T03:55:57.458Z,12.32
2023-04-21T04:00:59.076Z,12.65
2023-04-21T04:06:01.237Z,13.50
2023-04-21T04:11:03.094Z,13.05
2023-04-21T04:16:05.404Z,13.70
2023-04-21T04:21:07.692Z,15.25
2023-04-21T04:26:09.498Z,16.08
2023-04-21T04:31:11.277Z,14.73
2023-04-21T04:36:13.005Z,14.93
2023-04-21T04:41:15.843Z,13.82
2023-04-21T04:46:17.555Z,12.80
2023-04-21T04:51:19.136Z,17.95
2023-04-21T04:56:21.013Z,19.67
2023-04-21T05:01:25.965Z,16.73
2023-04-21T05:06:28.515Z,15.38
2023-04-21T05:11:30.216Z,14.95
2023-04-21T05:16:31.905Z,16.77
2023-04-21T05:21:33.732Z,15.75
2023-04-21T05:26:35.486Z,14.38
2023-04-21T05:31:39.019Z,14.68
2023-04-21T05:36:44.210Z,14.18
2023-04-21T05:41:45.932Z,15.93
2023-04-21T05:46:47.506Z,14.15
2023-04-21T05:51:49.160Z,14.82
2023-04-21T05:56:50.894Z,15.43
2023-04-21T06:01:52.497Z,16.10
2023-04-21T06:06:54.118Z,14.65
2023-04-21T06:11:56.949Z,15.48
2023-04-21T06:16:58.926Z,15.88
2023-04-21T06:22:00.510Z,16.13
2023-04-21T06:27:02.144Z,17.10
2023-04-21T06:32:04.071Z,16.88
2023-04-21T06:37:06.113Z,16.30
2023-04-21T06:42:07.827Z,16.38
2023-04-21T06:47:17.222Z,15.77
2023-04-21T06:52:20.208Z,15.52
2023-04-21T06:57:21.957Z,17.50
2023-04-21T07:02:23.786Z,21.23
2023-04-21T07:07:26.175Z,26.98
2023-04-21T07:12:27.873Z,26.15
2023-04-21T07:17:29.560Z,21.05
2023-04-21T07:22:31.566Z,19.20
2023-04-21T07:27:34.193Z,17.10
2023-04-21T07:32:37.576Z,18.42
2023-04-21T07:37:40.741Z,17.17
2023-04-21T07:42:42.372Z,15.65
2023-04-21T07:47:44.231Z,15.02
2023-04-21T07:52:46.039Z,14.05
2023-04-21T07:57:47.909Z,14.60
2023-04-21T08:02:49.619Z,13.60
2023-04-21T08:07:51.403Z,15.80
2023-04-21T08:12:53.052Z,16.13
2023-04-21T08:17:55.065Z,11.88
2023-04-21T08:22:57.951Z,11.93
2023-04-21T08:27:59.673Z,12.90
2023-04-21T08:33:01.398Z,11.45
2023-04-21T08:38:03.194Z,10.10
2023-04-21T08:43:08.719Z,5.65
2023-04-21T08:48:16.590Z,6.30
2023-04-21T08:53:18.260Z,4.50
2023-04-21T08:58:22.741Z,3.20
2023-04-21T09:03:27.048Z,4.35
2023-04-21T09:08:30.457Z,4.22
2023-04-21T09:13:34.289Z,4.45
2023-04-21T09:18:40.120Z,4.88
2023-04-21T09:23:43.675Z,4.25
2023-04-21T09:28:48.356Z,4.30
2023-04-21T09:34:01.153Z,4.20
2023-04-21T09:44:09.221Z,2.83
2023-04-21T09:49:13.879Z,2.90
2023-04-21T09:54:29.672Z,2.83
2023-04-21T09:59:37.029Z,2.80
2023-04-21T10:04:42.285Z,3.13
2023-04-21T10:09:57.618Z,2.50
2023-04-21T10:15:03.442Z,2.80
2023-04-21T10:20:07.072Z,2.97
2023-04-21T10:25:10.158Z,2.53
2023-04-21T10:30:29.138Z,2.97
2023-04-21T10:36:04.714Z,2.75
2023-04-21T10:41:31.052Z,2.88
2023-04-21T10:46:36.696Z,4.03
2023-04-21T10:52:00.169Z,2.20
2023-04-21T10:57:02.099Z,2.60
2023-04-21T11:02:05.168Z,3.15
2023-04-21T11:07:16.480Z,2.85
2023-04-21T11:12:18.918Z,2.78
2023-04-21T11:17:21.506Z,2.75
2023-04-21T11:22:25.217Z,2.25
2023-04-21T11:27:29.169Z,2.25
2023-04-21T11:32:31.101Z,2.25
2023-04-21T11:37:32.791Z,2.13
2023-04-21T11:42:34.647Z,3.72
2023-04-21T11:47:37.594Z,3.03
2023-04-21T11:52:39.694Z,3.22
2023-04-21T11:57:41.674Z,2.08
2023-04-21T12:02:43.812Z,2.30
2023-04-21T12:07:51.915Z,2.40
2023-04-21T12:12:56.329Z,2.03
2023-04-21T12:17:58.085Z,2.30
2023-04-21T12:23:01.038Z,2.03
2023-04-21T12:28:02.807Z,2.30
2023-04-21T12:33:04.711Z,2.50
2023-04-21T12:38:06.547Z,2.40
2023-04-21T12:43:08.312Z,2.42
2023-04-21T12:48:10.187Z,2.30
2023-04-21T12:53:11.928Z,2.25
2023-04-21T12:58:15.628Z,2.50
2023-04-21T13:03:17.424Z,2.92
2023-04-21T13:08:19.179Z,2.25
2023-04-21T13:13:20.860Z,2.25
2023-04-21T13:18:22.837Z,2.17
2023-04-21T13:23:24.495Z,2.60
2023-04-21T13:28:26.777Z,2.78
2023-04-21T13:33:28.545Z,2.28
2023-04-21T13:38:30.888Z,2.40
2023-04-21T13:43:32.612Z,2.45
2023-04-21T13:48:34.268Z,2.28
2023-04-21T13:53:36.211Z,2.90
2023-04-21T13:58:38.018Z,1.80
2023-04-21T14:03:39.964Z,2.17
2023-04-21T14:08:42.003Z,2.78
2023-04-21T14:13:59.546Z,2.20
2023-04-21T14:19:05.300Z,2.35
2023-04-21T14:24:07.580Z,2.30
2023-04-21T14:29:09.222Z,2.30
2023-04-21T14:34:11.061Z,2.38
2023-04-21T14:39:12.961Z,2.40
2023-04-21T14:44:15.747Z,2.45
2023-04-21T14:49:17.651Z,2.72
2023-04-21T14:54:19.231Z,2.30
2023-04-21T14:59:20.968Z,2.08
2023-04-21T15:04:22.916Z,2.10
2023-04-21T15:09:25.245Z,2.13
2023-04-21T15:14:26.998Z,2.38
2023-04-21T15:19:28.695Z,2.60
2023-04-21T15:24:30.523Z,2.70
2023-04-21T15:29:32.239Z,2.40
2023-04-21T15:34:34.051Z,2.50
2023-04-21T15:39:35.781Z,3.00
2023-04-21T15:44:39.102Z,2.40
2023-04-21T15:49:40.765Z,2.58
2023-04-21T15:54:46.020Z,2.47
2023-04-21T15:59:47.754Z,2.70
2023-04-21T16:04:49.709Z,2.38
2023-04-21T16:09:51.596Z,3.10
2023-04-21T16:14:59.633Z,2.97
2023-04-21T16:20:09.323Z,2.20
2023-04-21T16:25:13.817Z,2.40
2023-04-21T16:30:15.888Z,2.55
2023-04-21T16:35:17.682Z,3.20
2023-04-21T16:40:19.597Z,3.00
2023-04-21T16:45:21.416Z,2.60
2023-04-21T16:50:23.640Z,2.38
2023-04-21T16:55:25.343Z,4.05
2023-04-21T17:00:27.386Z,2.83
2023-04-21T17:05:30.463Z,3.30
2023-04-21T17:10:32.182Z,2.88
2023-04-21T17:15:34.216Z,2.53
2023-04-21T17:20:36.726Z,3.00
2023-04-21T17:25:38.714Z,3.25
2023-04-21T17:30:40.312Z,3.25
2023-04-21T17:35:55.864Z,3.42
2023-04-21T17:41:06.694Z,3.30
2023-04-21T17:46:08.581Z,3.70
2023-04-21T17:51:11.042Z,2.67
2023-04-21T17:56:14.573Z,2.53
2023-04-21T18:01:17.020Z,2.90
2023-04-21T18:06:18.851Z,2.85
2023-04-21T18:11:20.545Z,2.30
2023-04-21T18:16:22.489Z,3.50
2023-04-21T18:21:24.396Z,2.50
2023-04-21T18:26:26.653Z,3.03
2023-04-21T18:31:29.797Z,3.03
2023-04-21T18:36:33.458Z,2.85
2023-04-21T18:41:37.272Z,2.92
2023-04-21T18:46:38.968Z,2.45
2023-04-21T18:51:40.756Z,2.78
2023-04-21T18:56:42.418Z,2.90
2023-04-21T19:01:44.351Z,2.97
2023-04-21T19:06:46.198Z,2.88
2023-04-21T19:11:47.901Z,3.08
2023-04-21T19:16:51.831Z,4.07
2023-04-21T19:21:53.584Z,3.03
2023-04-21T19:26:55.867Z,4.00
2023-04-21T19:31:58.349Z,3.63
2023-04-21T19:37:00.469Z,3.40
2023-04-21T19:42:02.061Z,3.78
2023-04-21T19:47:03.784Z,3.40
2023-04-21T19:52:05.998Z,3.55
2023-04-21T19:57:07.698Z,3.90
2023-04-21T20:02:09.632Z,3.70
2023-04-21T20:07:11.517Z,3.80
2023-04-21T20:12:13.146Z,4.07
2023-04-21T20:17:14.727Z,4.55
2023-04-21T20:22:16.350Z,3.50
2023-04-21T20:27:18.493Z,3.92
2023-04-21T20:32:20.265Z,4.63
2023-04-21T20:37:23.385Z,3.80
2023-04-21T20:42:25.414Z,4.10
2023-04-21T20:47:27.031Z,4.03
2023-04-21T20:52:28.666Z,4.15
2023-04-21T20:57:30.707Z,3.70
2023-04-21T21:02:32.449Z,3.92
2023-04-21T21:07:34.290Z,3.83
2023-04-21T21:12:35.932Z,4.30
2023-04-21T21:17:37.690Z,3.88
2023-04-21T21:22:39.363Z,4.57
2023-04-21T21:27:41.047Z,5.05
2023-04-21T21:32:42.756Z,4.50
2023-04-21T21:37:44.469Z,4.60
2023-04-21T21:42:46.054Z,4.05
2023-04-21T21:47:47.756Z,4.38
2023-04-21T21:52:49.493Z,4.90
2023-04-21T21:57:51.221Z,4.30
2023-04-21T22:02:53.011Z,4.70
2023-04-21T22:07:56.806Z,4.60
2023-04-21T22:12:58.485Z,4.47
2023-04-21T22:18:00.304Z,5.00
2023-04-21T22:23:02.818Z,6.85
2023-04-21T22:28:04.750Z,5.57
2023-04-21T22:33:06.775Z,5.88
2023-04-21T22:38:08.473Z,5.55
2023-04-21T22:43:10.173Z,5.90
2023-04-21T22:48:14.085Z,5.43
2023-04-21T22:53:15.833Z,6.32
2023-04-21T22:58:17.481Z,6.20
2023-04-21T23:03:19.337Z,6.47
2023-04-21T23:08:21.130Z,5.72
2023-04-21T23:13:23.072Z,6.05
2023-04-21T23:18:24.762Z,5.72
2023-04-21T23:23:26.521Z,5.93
2023-04-21T23:28:28.172Z,6.40
2023-04-21T23:33:29.892Z,6.03
2023-04-21T23:38:31.716Z,6.22
2023-04-21T23:43:34.579Z,6.15
2023-04-21T23:48:36.506Z,5.97
2023-04-21T23:53:38.270Z,6.50
2023-04-21T23:58:39.885Z,6.45
